sensor_id;sensor_type;location;lat;lon;timestamp;P1;durP1;ratioP1;P2;durP2;ratioP2
49626;SDS011;35527;54.616;39.786;2023-08-20T00:01:14;6.30;;;5.10;;
49626;SDS011;35527;54.616;39.786;2023-08-20T00:04:22;9.82;;;5.63;;
49626;SDS011;35527;54.616;39.786;2023-08-20T00:07:27;6.93;;;4.93;;
49626;SDS011;35527;54.616;39.786;2023-08-20T00:10:30;6.30;;;5.07;;
49626;SDS011;35527;54.616;39.786;2023-08-20T00:13:35;7.57;;;5.50;;
49626;SDS011;35527;54.616;39.786;2023-08-20T00:16:39;7.50;;;5.13;;
49626;SDS011;35527;54.616;39.786;2023-08-20T00:19:43;7.70;;;5.13;;
49626;SDS011;35527;54.616;39.786;2023-08-20T00:22:46;7.70;;;5.93;;
49626;SDS011;35527;54.616;39.786;2023-08-20T00:25:52;7.75;;;5.60;;
49626;SDS011;35527;54.616;39.786;2023-08-20T00:28:55;6.65;;;5.40;;
49626;SDS011;35527;54.616;39.786;2023-08-20T00:32:00;7.45;;;5.10;;
49626;SDS011;35527;54.616;39.786;2023-08-20T00:35:03;8.35;;;5.40;;
49626;SDS011;35527;54.616;39.786;2023-08-20T00:38:16;8.77;;;5.88;;
49626;SDS011;35527;54.616;39.786;2023-08-20T00:41:19;8.90;;;6.43;;
49626;SDS011;35527;54.616;39.786;2023-08-20T00:44:21;10.98;;;6.70;;
49626;SDS011;35527;54.616;39.786;2023-08-20T00:47:25;13.55;;;7.57;;
49626;SDS011;35527;54.616;39.786;2023-08-20T00:50:35;15.77;;;10.23;;
49626;SDS011;35527;54.616;39.786;2023-08-20T00:53:39;15.23;;;9.82;;
49626;SDS011;35527;54.616;39.786;2023-08-20T00:56:42;18.70;;;12.38;;
49626;SDS011;35527;54.616;39.786;2023-08-20T00:59:46;16.80;;;12.48;;
49626;SDS011;35527;54.616;39.786;2023-08-20T01:02:58;17.27;;;12.48;;
49626;SDS011;35527;54.616;39.786;2023-08-20T01:12:52;17.35;;;12.85;;
49626;SDS011;35527;54.616;39.786;2023-08-20T01:15:57;16.40;;;11.43;;
49626;SDS011;35527;54.616;39.786;2023-08-20T01:19:03;16.55;;;11.70;;
49626;SDS011;35527;54.616;39.786;2023-08-20T01:29:08;12.05;;;9.38;;
49626;SDS011;35527;54.616;39.786;2023-08-20T01:32:13;12.38;;;9.10;;
49626;SDS011;35527;54.616;39.786;2023-08-20T01:35:18;11.40;;;8.45;;
49626;SDS011;35527;54.616;39.786;2023-08-20T01:38:22;10.23;;;9.10;;
49626;SDS011;35527;54.616;39.786;2023-08-20T01:41:30;12.48;;;8.35;;
49626;SDS011;35527;54.616;39.786;2023-08-20T01:47:36;10.73;;;8.30;;
49626;SDS011;35527;54.616;39.786;2023-08-20T01:50:42;11.98;;;9.38;;
49626;SDS011;35527;54.616;39.786;2023-08-20T01:53:50;12.93;;;9.40;;
49626;SDS011;35527;54.616;39.786;2023-08-20T01:56:53;12.10;;;8.98;;
49626;SDS011;35527;54.616;39.786;2023-08-20T02:03:03;11.75;;;8.68;;
49626;SDS011;35527;54.616;39.786;2023-08-20T02:06:07;11.68;;;9.02;;
49626;SDS011;35527;54.616;39.786;2023-08-20T02:09:10;10.30;;;8.27;;
49626;SDS011;35527;54.616;39.786;2023-08-20T02:12:13;13.73;;;8.75;;
49626;SDS011;35527;54.616;39.786;2023-08-20T02:15:16;10.13;;;7.93;;
49626;SDS011;35527;54.616;39.786;2023-08-20T02:18:19;14.77;;;8.73;;
49626;SDS011;35527;54.616;39.786;2023-08-20T02:21:22;12.25;;;9.05;;
49626;SDS011;35527;54.616;39.786;2023-08-20T02:24:27;14.17;;;10.00;;
49626;SDS011;35527;54.616;39.786;2023-08-20T02:27:32;11.82;;;9.88;;
49626;SDS011;35527;54.616;39.786;2023-08-20T02:30:44;17.58;;;12.10;;
49626;SDS011;35527;54.616;39.786;2023-08-20T02:33:48;18.08;;;10.93;;
49626;SDS011;35527;54.616;39.786;2023-08-20T02:36:52;14.20;;;10.00;;
49626;SDS011;35527;54.616;39.786;2023-08-20T02:39:58;16.92;;;10.60;;
49626;SDS011;35527;54.616;39.786;2023-08-20T02:43:02;12.18;;;9.80;;
49626;SDS011;35527;54.616;39.786;2023-08-20T02:46:06;12.95;;;9.10;;
49626;SDS011;35527;54.616;39.786;2023-08-20T02:49:09;10.60;;;8.30;;
49626;SDS011;35527;54.616;39.786;2023-08-20T02:52:15;11.95;;;8.98;;
49626;SDS011;35527;54.616;39.786;2023-08-20T02:55:19;11.98;;;8.43;;
49626;SDS011;35527;54.616;39.786;2023-08-20T02:58:22;10.63;;;8.90;;
49626;SDS011;35527;54.616;39.786;2023-08-20T03:01:28;11.52;;;8.15;;
49626;SDS011;35527;54.616;39.786;2023-08-20T03:04:34;9.40;;;8.38;;
49626;SDS011;35527;54.616;39.786;2023-08-20T03:07:38;11.18;;;7.88;;
49626;SDS011;35527;54.616;39.786;2023-08-20T03:10:40;11.75;;;8.07;;
49626;SDS011;35527;54.616;39.786;2023-08-20T03:13:47;9.23;;;7.57;;
49626;SDS011;35527;54.616;39.786;2023-08-20T03:16:51;10.27;;;7.53;;
49626;SDS011;35527;54.616;39.786;2023-08-20T03:19:55;12.50;;;8.38;;
49626;SDS011;35527;54.616;39.786;2023-08-20T03:22:59;10.88;;;7.95;;
49626;SDS011;35527;54.616;39.786;2023-08-20T03:26:04;12.77;;;7.95;;
49626;SDS011;35527;54.616;39.786;2023-08-20T03:29:11;11.40;;;8.80;;
49626;SDS011;35527;54.616;39.786;2023-08-20T03:32:14;13.82;;;9.85;;
49626;SDS011;35527;54.616;39.786;2023-08-20T03:35:17;13.50;;;9.70;;
49626;SDS011;35527;54.616;39.786;2023-08-20T03:38:23;12.63;;;8.20;;
49626;SDS011;35527;54.616;39.786;2023-08-20T03:41:30;12.20;;;8.50;;
49626;SDS011;35527;54.616;39.786;2023-08-20T03:44:33;14.10;;;8.87;;
49626;SDS011;35527;54.616;39.786;2023-08-20T03:47:36;11.43;;;8.10;;
49626;SDS011;35527;54.616;39.786;2023-08-20T03:50:40;10.02;;;7.78;;
49626;SDS011;35527;54.616;39.786;2023-08-20T03:53:42;11.52;;;8.43;;
49626;SDS011;35527;54.616;39.786;2023-08-20T03:56:48;13.23;;;7.68;;
49626;SDS011;35527;54.616;39.786;2023-08-20T03:59:51;12.10;;;6.32;;
49626;SDS011;35527;54.616;39.786;2023-08-20T04:02:56;12.93;;;6.65;;
49626;SDS011;35527;54.616;39.786;2023-08-20T04:06:02;10.65;;;6.97;;
49626;SDS011;35527;54.616;39.786;2023-08-20T04:09:05;11.40;;;7.45;;
49626;SDS011;35527;54.616;39.786;2023-08-20T04:12:09;12.90;;;7.45;;
49626;SDS011;35527;54.616;39.786;2023-08-20T04:15:14;9.75;;;6.60;;
49626;SDS011;35527;54.616;39.786;2023-08-20T04:18:18;11.38;;;6.45;;
49626;SDS011;35527;54.616;39.786;2023-08-20T04:21:22;10.45;;;6.55;;
49626;SDS011;35527;54.616;39.786;2023-08-20T04:24:24;10.60;;;5.63;;
49626;SDS011;35527;54.616;39.786;2023-08-20T04:27:27;12.00;;;6.45;;
49626;SDS011;35527;54.616;39.786;2023-08-20T04:30:36;9.75;;;6.15;;
49626;SDS011;35527;54.616;39.786;2023-08-20T04:33:41;11.90;;;6.22;;
49626;SDS011;35527;54.616;39.786;2023-08-20T04:36:44;8.80;;;6.43;;
49626;SDS011;35527;54.616;39.786;2023-08-20T04:42:54;10.35;;;6.68;;
49626;SDS011;35527;54.616;39.786;2023-08-20T04:45:59;8.52;;;6.18;;
49626;SDS011;35527;54.616;39.786;2023-08-20T04:49:05;10.95;;;7.22;;
49626;SDS011;35527;54.616;39.786;2023-08-20T04:52:09;12.00;;;7.72;;
49626;SDS011;35527;54.616;39.786;2023-08-20T04:55:14;10.15;;;7.57;;
49626;SDS011;35527;54.616;39.786;2023-08-20T04:58:19;10.95;;;7.63;;
49626;SDS011;35527;54.616;39.786;2023-08-20T05:01:21;12.10;;;8.00;;
49626;SDS011;35527;54.616;39.786;2023-08-20T05:04:25;10.82;;;7.65;;
49626;SDS011;35527;54.616;39.786;2023-08-20T05:07:30;11.82;;;7.18;;
49626;SDS011;35527;54.616;39.786;2023-08-20T05:10:35;11.60;;;7.53;;
49626;SDS011;35527;54.616;39.786;2023-08-20T05:13:39;11.10;;;7.68;;
49626;SDS011;35527;54.616;39.786;2023-08-20T05:16:43;11.40;;;7.83;;
49626;SDS011;35527;54.616;39.786;2023-08-20T05:22:49;16.65;;;7.80;;
49626;SDS011;35527;54.616;39.786;2023-08-20T05:25:52;11.20;;;7.82;;
49626;SDS011;35527;54.616;39.786;2023-08-20T05:28:58;12.50;;;7.40;;
49626;SDS011;35527;54.616;39.786;2023-08-20T05:32:03;11.82;;;7.40;;
49626;SDS011;35527;54.616;39.786;2023-08-20T05:35:08;14.48;;;6.75;;
49626;SDS011;35527;54.616;39.786;2023-08-20T05:38:12;9.00;;;6.20;;
49626;SDS011;35527;54.616;39.786;2023-08-20T05:41:17;10.85;;;6.53;;
49626;SDS011;35527;54.616;39.786;2023-08-20T05:44:21;9.82;;;7.30;;
49626;SDS011;35527;54.616;39.786;2023-08-20T05:47:27;11.02;;;6.25;;
49626;SDS011;35527;54.616;39.786;2023-08-20T05:50:32;10.88;;;6.40;;
49626;SDS011;35527;54.616;39.786;2023-08-20T05:53:42;11.32;;;6.35;;
49626;SDS011;35527;54.616;39.786;2023-08-20T05:56:46;10.23;;;6.03;;
49626;SDS011;35527;54.616;39.786;2023-08-20T05:59:52;10.15;;;6.35;;
49626;SDS011;35527;54.616;39.786;2023-08-20T06:03:00;9.80;;;6.30;;
49626;SDS011;35527;54.616;39.786;2023-08-20T06:06:05;13.77;;;7.82;;
49626;SDS011;35527;54.616;39.786;2023-08-20T06:12:11;12.68;;;7.78;;
49626;SDS011;35527;54.616;39.786;2023-08-20T06:15:14;13.20;;;8.00;;
49626;SDS011;35527;54.616;39.786;2023-08-20T06:18:19;11.55;;;7.93;;
49626;SDS011;35527;54.616;39.786;2023-08-20T06:21:23;14.57;;;7.60;;
49626;SDS011;35527;54.616;39.786;2023-08-20T06:24:26;10.30;;;7.40;;
49626;SDS011;35527;54.616;39.786;2023-08-20T06:27:29;10.93;;;7.57;;
49626;SDS011;35527;54.616;39.786;2023-08-20T06:30:32;9.88;;;7.82;;
49626;SDS011;35527;54.616;39.786;2023-08-20T06:33:35;9.73;;;7.00;;
49626;SDS011;35527;54.616;39.786;2023-08-20T06:36:38;11.27;;;9.00;;
49626;SDS011;35527;54.616;39.786;2023-08-20T06:39:41;10.18;;;8.02;;
49626;SDS011;35527;54.616;39.786;2023-08-20T06:42:44;10.65;;;7.60;;
49626;SDS011;35527;54.616;39.786;2023-08-20T06:45:51;11.88;;;6.75;;
49626;SDS011;35527;54.616;39.786;2023-08-20T06:48:57;10.35;;;6.93;;
49626;SDS011;35527;54.616;39.786;2023-08-20T06:52:01;7.80;;;6.13;;
49626;SDS011;35527;54.616;39.786;2023-08-20T06:55:04;10.55;;;6.80;;
49626;SDS011;35527;54.616;39.786;2023-08-20T06:58:10;12.25;;;7.32;;
49626;SDS011;35527;54.616;39.786;2023-08-20T07:01:13;10.88;;;6.95;;
49626;SDS011;35527;54.616;39.786;2023-08-20T07:04:16;7.63;;;6.00;;
49626;SDS011;35527;54.616;39.786;2023-08-20T07:07:19;7.95;;;5.53;;
49626;SDS011;35527;54.616;39.786;2023-08-20T07:10:22;8.68;;;4.97;;
49626;SDS011;35527;54.616;39.786;2023-08-20T07:13:24;7.78;;;5.30;;
49626;SDS011;35527;54.616;39.786;2023-08-20T07:16:28;8.25;;;5.40;;
49626;SDS011;35527;54.616;39.786;2023-08-20T07:22:36;9.38;;;5.47;;
49626;SDS011;35527;54.616;39.786;2023-08-20T07:25:41;9.33;;;5.90;;
49626;SDS011;35527;54.616;39.786;2023-08-20T07:28:43;7.72;;;5.30;;
49626;SDS011;35527;54.616;39.786;2023-08-20T07:32:06;7.45;;;4.93;;
49626;SDS011;35527;54.616;39.786;2023-08-20T07:35:12;7.60;;;4.43;;
49626;SDS011;35527;54.616;39.786;2023-08-20T07:38:15;6.72;;;3.63;;
49626;SDS011;35527;54.616;39.786;2023-08-20T07:41:23;8.10;;;3.60;;
49626;SDS011;35527;54.616;39.786;2023-08-20T07:44:26;5.95;;;3.58;;
49626;SDS011;35527;54.616;39.786;2023-08-20T07:47:30;5.93;;;3.80;;
49626;SDS011;35527;54.616;39.786;2023-08-20T07:50:33;5.82;;;3.78;;
49626;SDS011;35527;54.616;39.786;2023-08-20T07:53:37;6.40;;;3.88;;
49626;SDS011;35527;54.616;39.786;2023-08-20T07:56:40;6.60;;;3.78;;
49626;SDS011;35527;54.616;39.786;2023-08-20T07:59:43;6.13;;;4.07;;
49626;SDS011;35527;54.616;39.786;2023-08-20T08:02:48;6.40;;;4.30;;
49626;SDS011;35527;54.616;39.786;2023-08-20T08:05:52;6.40;;;4.28;;
49626;SDS011;35527;54.616;39.786;2023-08-20T08:08:56;6.38;;;3.53;;
49626;SDS011;35527;54.616;39.786;2023-08-20T08:12:00;6.47;;;4.22;;
49626;SDS011;35527;54.616;39.786;2023-08-20T08:15:06;6.72;;;4.13;;
49626;SDS011;35527;54.616;39.786;2023-08-20T08:18:11;6.47;;;3.88;;
49626;SDS011;35527;54.616;39.786;2023-08-20T08:21:17;6.03;;;3.55;;
49626;SDS011;35527;54.616;39.786;2023-08-20T08:24:23;7.80;;;4.32;;
49626;SDS011;35527;54.616;39.786;2023-08-20T08:27:25;6.45;;;3.80;;
49626;SDS011;35527;54.616;39.786;2023-08-20T08:30:28;6.45;;;3.65;;
49626;SDS011;35527;54.616;39.786;2023-08-20T08:33:31;6.82;;;3.70;;
49626;SDS011;35527;54.616;39.786;2023-08-20T08:36:34;5.90;;;3.42;;
49626;SDS011;35527;54.616;39.786;2023-08-20T08:39:38;5.95;;;3.30;;
49626;SDS011;35527;54.616;39.786;2023-08-20T08:42:46;5.57;;;3.47;;
49626;SDS011;35527;54.616;39.786;2023-08-20T08:45:53;7.03;;;3.35;;
49626;SDS011;35527;54.616;39.786;2023-08-20T08:49:00;9.75;;;4.63;;
49626;SDS011;35527;54.616;39.786;2023-08-20T08:52:05;9.65;;;4.40;;
49626;SDS011;35527;54.616;39.786;2023-08-20T08:58:13;8.70;;;3.70;;
49626;SDS011;35527;54.616;39.786;2023-08-20T09:01:18;11.15;;;5.05;;
49626;SDS011;35527;54.616;39.786;2023-08-20T09:04:22;12.85;;;6.25;;
49626;SDS011;35527;54.616;39.786;2023-08-20T09:07:26;11.75;;;5.57;;
49626;SDS011;35527;54.616;39.786;2023-08-20T09:10:31;8.60;;;4.20;;
49626;SDS011;35527;54.616;39.786;2023-08-20T09:13:36;11.07;;;5.03;;
49626;SDS011;35527;54.616;39.786;2023-08-20T09:16:43;10.10;;;4.38;;
49626;SDS011;35527;54.616;39.786;2023-08-20T09:22:49;11.68;;;5.07;;
49626;SDS011;35527;54.616;39.786;2023-08-20T09:25:53;10.02;;;5.75;;
49626;SDS011;35527;54.616;39.786;2023-08-20T09:28:56;10.05;;;4.90;;
49626;SDS011;35527;54.616;39.786;2023-08-20T09:35:04;6.90;;;3.58;;
49626;SDS011;35527;54.616;39.786;2023-08-20T09:38:06;9.70;;;5.57;;
49626;SDS011;35527;54.616;39.786;2023-08-20T09:41:12;11.02;;;4.75;;
49626;SDS011;35527;54.616;39.786;2023-08-20T09:44:15;7.47;;;2.95;;
49626;SDS011;35527;54.616;39.786;2023-08-20T09:47:19;4.63;;;2.00;;
49626;SDS011;35527;54.616;39.786;2023-08-20T09:50:28;6.05;;;2.80;;
49626;SDS011;35527;54.616;39.786;2023-08-20T09:53:39;8.32;;;3.30;;
49626;SDS011;35527;54.616;39.786;2023-08-20T09:56:54;9.23;;;3.55;;
49626;SDS011;35527;54.616;39.786;2023-08-20T09:59:59;7.00;;;2.58;;
49626;SDS011;35527;54.616;39.786;2023-08-20T10:03:15;5.78;;;2.67;;
49626;SDS011;35527;54.616;39.786;2023-08-20T10:06:19;7.43;;;3.60;;
49626;SDS011;35527;54.616;39.786;2023-08-20T10:09:22;5.60;;;2.67;;
49626;SDS011;35527;54.616;39.786;2023-08-20T10:12:26;7.53;;;2.95;;
49626;SDS011;35527;54.616;39.786;2023-08-20T10:15:32;4.85;;;2.10;;
49626;SDS011;35527;54.616;39.786;2023-08-20T10:18:41;5.03;;;2.33;;
49626;SDS011;35527;54.616;39.786;2023-08-20T10:21:45;5.82;;;2.40;;
49626;SDS011;35527;54.616;39.786;2023-08-20T10:24:51;5.45;;;2.00;;
49626;SDS011;35527;54.616;39.786;2023-08-20T10:28:19;3.70;;;2.10;;
49626;SDS011;35527;54.616;39.786;2023-08-20T10:31:30;3.45;;;1.98;;
49626;SDS011;35527;54.616;39.786;2023-08-20T10:34:36;4.05;;;2.20;;
49626;SDS011;35527;54.616;39.786;2023-08-20T10:38:00;3.58;;;2.25;;
49626;SDS011;35527;54.616;39.786;2023-08-20T10:44:12;3.50;;;2.20;;
49626;SDS011;35527;54.616;39.786;2023-08-20T10:47:16;4.03;;;2.13;;
49626;SDS011;35527;54.616;39.786;2023-08-20T10:50:21;3.78;;;1.90;;
49626;SDS011;35527;54.616;39.786;2023-08-20T10:53:25;5.65;;;2.05;;
49626;SDS011;35527;54.616;39.786;2023-08-20T11:00:03;3.97;;;2.17;;
49626;SDS011;35527;54.616;39.786;2023-08-20T11:03:15;3.38;;;2.05;;
49626;SDS011;35527;54.616;39.786;2023-08-20T11:06:18;4.40;;;2.45;;
49626;SDS011;35527;54.616;39.786;2023-08-20T11:09:25;5.20;;;2.20;;
49626;SDS011;35527;54.616;39.786;2023-08-20T11:12:30;3.88;;;2.28;;
49626;SDS011;35527;54.616;39.786;2023-08-20T11:15:33;4.68;;;2.10;;
49626;SDS011;35527;54.616;39.786;2023-08-20T11:18:38;4.03;;;2.67;;
49626;SDS011;35527;54.616;39.786;2023-08-20T11:21:42;3.80;;;2.50;;
49626;SDS011;35527;54.616;39.786;2023-08-20T11:24:45;4.55;;;2.60;;
49626;SDS011;35527;54.616;39.786;2023-08-20T11:27:48;4.63;;;2.63;;
49626;SDS011;35527;54.616;39.786;2023-08-20T11:30:54;4.10;;;2.58;;
49626;SDS011;35527;54.616;39.786;2023-08-20T11:34:01;5.20;;;2.40;;
49626;SDS011;35527;54.616;39.786;2023-08-20T11:37:08;5.22;;;2.90;;
49626;SDS011;35527;54.616;39.786;2023-08-20T11:40:14;4.65;;;2.42;;
49626;SDS011;35527;54.616;39.786;2023-08-20T11:43:18;4.55;;;2.60;;
49626;SDS011;35527;54.616;39.786;2023-08-20T11:46:23;4.00;;;2.60;;
49626;SDS011;35527;54.616;39.786;2023-08-20T11:49:28;4.53;;;2.47;;
49626;SDS011;35527;54.616;39.786;2023-08-20T11:52:33;4.88;;;2.50;;
49626;SDS011;35527;54.616;39.786;2023-08-20T11:55:40;4.53;;;2.72;;
49626;SDS011;35527;54.616;39.786;2023-08-20T11:58:49;5.15;;;2.47;;
49626;SDS011;35527;54.616;39.786;2023-08-20T12:02:01;5.20;;;2.90;;
49626;SDS011;35527;54.616;39.786;2023-08-20T12:05:07;5.20;;;2.78;;
49626;SDS011;35527;54.616;39.786;2023-08-20T12:08:15;4.80;;;2.60;;
49626;SDS011;35527;54.616;39.786;2023-08-20T12:11:28;4.50;;;2.65;;
49626;SDS011;35527;54.616;39.786;2023-08-20T12:14:32;4.25;;;3.00;;
49626;SDS011;35527;54.616;39.786;2023-08-20T12:17:37;4.57;;;2.92;;
49626;SDS011;35527;54.616;39.786;2023-08-20T12:20:39;4.57;;;2.70;;
49626;SDS011;35527;54.616;39.786;2023-08-20T12:23:47;4.30;;;2.80;;
49626;SDS011;35527;54.616;39.786;2023-08-20T12:26:50;5.18;;;2.75;;
49626;SDS011;35527;54.616;39.786;2023-08-20T12:29:54;3.80;;;2.50;;
49626;SDS011;35527;54.616;39.786;2023-08-20T12:32:59;6.28;;;2.88;;
49626;SDS011;35527;54.616;39.786;2023-08-20T12:36:02;5.78;;;2.65;;
49626;SDS011;35527;54.616;39.786;2023-08-20T12:42:09;5.72;;;2.88;;
49626;SDS011;35527;54.616;39.786;2023-08-20T12:45:13;5.70;;;2.70;;
49626;SDS011;35527;54.616;39.786;2023-08-20T12:48:21;4.97;;;2.80;;
49626;SDS011;35527;54.616;39.786;2023-08-20T12:51:24;6.13;;;2.75;;
49626;SDS011;35527;54.616;39.786;2023-08-20T12:54:31;4.93;;;3.00;;
49626;SDS011;35527;54.616;39.786;2023-08-20T12:57:34;5.85;;;2.90;;
49626;SDS011;35527;54.616;39.786;2023-08-20T13:00:39;4.50;;;2.60;;
49626;SDS011;35527;54.616;39.786;2023-08-20T13:03:43;6.63;;;3.15;;
49626;SDS011;35527;54.616;39.786;2023-08-20T13:06:47;5.53;;;3.20;;
49626;SDS011;35527;54.616;39.786;2023-08-20T13:09:52;5.28;;;3.35;;
49626;SDS011;35527;54.616;39.786;2023-08-20T13:12:57;5.28;;;3.05;;
49626;SDS011;35527;54.616;39.786;2023-08-20T13:16:04;5.03;;;2.80;;
49626;SDS011;35527;54.616;39.786;2023-08-20T13:19:07;6.20;;;3.10;;
49626;SDS011;35527;54.616;39.786;2023-08-20T13:22:12;6.30;;;3.15;;
49626;SDS011;35527;54.616;39.786;2023-08-20T13:25:19;6.25;;;3.20;;
49626;SDS011;35527;54.616;39.786;2023-08-20T13:28:26;5.40;;;3.08;;
49626;SDS011;35527;54.616;39.786;2023-08-20T13:31:30;6.73;;;3.10;;
49626;SDS011;35527;54.616;39.786;2023-08-20T13:34:35;6.65;;;3.60;;
49626;SDS011;35527;54.616;39.786;2023-08-20T13:37:39;6.15;;;3.63;;
49626;SDS011;35527;54.616;39.786;2023-08-20T13:40:42;5.95;;;3.05;;
49626;SDS011;35527;54.616;39.786;2023-08-20T13:43:44;5.03;;;2.85;;
49626;SDS011;35527;54.616;39.786;2023-08-20T13:46:49;5.07;;;2.83;;
49626;SDS011;35527;54.616;39.786;2023-08-20T13:49:51;6.05;;;2.85;;
49626;SDS011;35527;54.616;39.786;2023-08-20T13:52:55;5.22;;;3.42;;
49626;SDS011;35527;54.616;39.786;2023-08-20T13:56:01;5.95;;;3.22;;
49626;SDS011;35527;54.616;39.786;2023-08-20T13:59:05;7.18;;;3.28;;
49626;SDS011;35527;54.616;39.786;2023-08-20T14:02:08;6.93;;;4.10;;
49626;SDS011;35527;54.616;39.786;2023-08-20T14:05:12;5.47;;;3.58;;
49626;SDS011;35527;54.616;39.786;2023-08-20T14:08:19;4.72;;;3.30;;
49626;SDS011;35527;54.616;39.786;2023-08-20T14:11:23;5.30;;;3.25;;
49626;SDS011;35527;54.616;39.786;2023-08-20T14:17:30;7.25;;;4.18;;
49626;SDS011;35527;54.616;39.786;2023-08-20T14:20:32;7.38;;;4.30;;
49626;SDS011;35527;54.616;39.786;2023-08-20T14:23:38;7.97;;;4.10;;
49626;SDS011;35527;54.616;39.786;2023-08-20T14:26:42;5.20;;;3.53;;
49626;SDS011;35527;54.616;39.786;2023-08-20T14:29:44;5.90;;;3.60;;
49626;SDS011;35527;54.616;39.786;2023-08-20T14:32:48;7.35;;;4.00;;
49626;SDS011;35527;54.616;39.786;2023-08-20T14:35:54;5.97;;;3.70;;
49626;SDS011;35527;54.616;39.786;2023-08-20T14:38:57;5.03;;;3.35;;
49626;SDS011;35527;54.616;39.786;2023-08-20T14:41:59;6.47;;;3.88;;
49626;SDS011;35527;54.616;39.786;2023-08-20T14:45:02;6.38;;;3.90;;
49626;SDS011;35527;54.616;39.786;2023-08-20T14:48:07;7.45;;;3.90;;
49626;SDS011;35527;54.616;39.786;2023-08-20T14:51:15;4.90;;;3.70;;
49626;SDS011;35527;54.616;39.786;2023-08-20T14:54:18;8.25;;;3.78;;
49626;SDS011;35527;54.616;39.786;2023-08-20T14:57:22;6.05;;;4.18;;
49626;SDS011;35527;54.616;39.786;2023-08-20T15:00:27;7.05;;;4.10;;
49626;SDS011;35527;54.616;39.786;2023-08-20T15:03:30;5.80;;;4.13;;
49626;SDS011;35527;54.616;39.786;2023-08-20T15:06:32;6.03;;;3.75;;
49626;SDS011;35527;54.616;39.786;2023-08-20T15:09:38;5.55;;;3.13;;
49626;SDS011;35527;54.616;39.786;2023-08-20T15:12:43;9.82;;;3.80;;
49626;SDS011;35527;54.616;39.786;2023-08-20T15:15:52;7.22;;;3.47;;
49626;SDS011;35527;54.616;39.786;2023-08-20T15:18:58;6.75;;;3.20;;
49626;SDS011;35527;54.616;39.786;2023-08-20T15:22:03;6.13;;;3.77;;
49626;SDS011;35527;54.616;39.786;2023-08-20T15:25:07;6.35;;;3.60;;
49626;SDS011;35527;54.616;39.786;2023-08-20T15:28:12;8.25;;;3.53;;
49626;SDS011;35527;54.616;39.786;2023-08-20T15:31:15;6.47;;;4.28;;
49626;SDS011;35527;54.616;39.786;2023-08-20T15:34:20;4.97;;;3.30;;
49626;SDS011;35527;54.616;39.786;2023-08-20T15:37:27;5.93;;;3.25;;
49626;SDS011;35527;54.616;39.786;2023-08-20T15:40:34;5.38;;;2.95;;
49626;SDS011;35527;54.616;39.786;2023-08-20T15:43:36;6.15;;;3.42;;
49626;SDS011;35527;54.616;39.786;2023-08-20T15:46:44;5.75;;;3.30;;
49626;SDS011;35527;54.616;39.786;2023-08-20T15:49:47;4.85;;;3.00;;
49626;SDS011;35527;54.616;39.786;2023-08-20T15:55:55;4.75;;;2.70;;
49626;SDS011;35527;54.616;39.786;2023-08-20T15:59:00;7.15;;;3.28;;
49626;SDS011;35527;54.616;39.786;2023-08-20T16:02:04;5.35;;;3.55;;
49626;SDS011;35527;54.616;39.786;2023-08-20T16:05:12;5.30;;;2.80;;
49626;SDS011;35527;54.616;39.786;2023-08-20T16:08:15;6.22;;;3.00;;
49626;SDS011;35527;54.616;39.786;2023-08-20T16:11:19;5.30;;;3.25;;
49626;SDS011;35527;54.616;39.786;2023-08-20T16:14:23;6.85;;;3.08;;
49626;SDS011;35527;54.616;39.786;2023-08-20T16:17:26;4.72;;;2.97;;
49626;SDS011;35527;54.616;39.786;2023-08-20T16:20:34;8.00;;;4.15;;
49626;SDS011;35527;54.616;39.786;2023-08-20T16:23:41;5.13;;;3.47;;
49626;SDS011;35527;54.616;39.786;2023-08-20T16:26:43;6.18;;;3.63;;
49626;SDS011;35527;54.616;39.786;2023-08-20T16:29:46;5.72;;;3.10;;
49626;SDS011;35527;54.616;39.786;2023-08-20T16:32:49;7.05;;;3.35;;
49626;SDS011;35527;54.616;39.786;2023-08-20T16:35:52;5.60;;;3.20;;
49626;SDS011;35527;54.616;39.786;2023-08-20T16:38:55;6.05;;;2.95;;
49626;SDS011;35527;54.616;39.786;2023-08-20T16:41:58;4.65;;;3.10;;
49626;SDS011;35527;54.616;39.786;2023-08-20T16:45:02;5.43;;;2.50;;
49626;SDS011;35527;54.616;39.786;2023-08-20T16:48:06;4.55;;;2.90;;
49626;SDS011;35527;54.616;39.786;2023-08-20T16:51:10;6.63;;;2.95;;
49626;SDS011;35527;54.616;39.786;2023-08-20T16:54:12;4.90;;;2.80;;
49626;SDS011;35527;54.616;39.786;2023-08-20T16:57:16;5.15;;;2.80;;
49626;SDS011;35527;54.616;39.786;2023-08-20T17:00:19;5.15;;;2.63;;
49626;SDS011;35527;54.616;39.786;2023-08-20T17:03:22;5.75;;;2.75;;
49626;SDS011;35527;54.616;39.786;2023-08-20T17:06:26;5.68;;;2.60;;
49626;SDS011;35527;54.616;39.786;2023-08-20T17:09:30;5.43;;;2.38;;
49626;SDS011;35527;54.616;39.786;2023-08-20T17:12:34;5.20;;;2.67;;
49626;SDS011;35527;54.616;39.786;2023-08-20T17:15:37;7.15;;;2.90;;
49626;SDS011;35527;54.616;39.786;2023-08-20T17:18:44;4.10;;;2.45;;
49626;SDS011;35527;54.616;39.786;2023-08-20T17:21:47;5.43;;;2.60;;
49626;SDS011;35527;54.616;39.786;2023-08-20T17:24:50;5.13;;;2.97;;
49626;SDS011;35527;54.616;39.786;2023-08-20T17:27:55;6.28;;;3.00;;
49626;SDS011;35527;54.616;39.786;2023-08-20T17:30:57;5.55;;;2.63;;
49626;SDS011;35527;54.616;39.786;2023-08-20T17:34:03;4.70;;;2.75;;
49626;SDS011;35527;54.616;39.786;2023-08-20T17:37:11;7.95;;;3.70;;
49626;SDS011;35527;54.616;39.786;2023-08-20T17:40:18;7.35;;;4.38;;
49626;SDS011;35527;54.616;39.786;2023-08-20T17:43:21;7.55;;;4.15;;
49626;SDS011;35527;54.616;39.786;2023-08-20T17:46:24;9.68;;;4.57;;
49626;SDS011;35527;54.616;39.786;2023-08-20T17:52:33;8.00;;;4.10;;
49626;SDS011;35527;54.616;39.786;2023-08-20T17:55:39;7.45;;;4.40;;
49626;SDS011;35527;54.616;39.786;2023-08-20T17:58:43;9.00;;;4.88;;
49626;SDS011;35527;54.616;39.786;2023-08-20T18:01:53;8.93;;;6.25;;
49626;SDS011;35527;54.616;39.786;2023-08-20T18:04:56;9.85;;;5.70;;
49626;SDS011;35527;54.616;39.786;2023-08-20T18:07:59;8.35;;;5.25;;
49626;SDS011;35527;54.616;39.786;2023-08-20T18:11:02;8.35;;;5.57;;
49626;SDS011;35527;54.616;39.786;2023-08-20T18:14:05;7.53;;;4.63;;
49626;SDS011;35527;54.616;39.786;2023-08-20T18:17:08;8.38;;;5.20;;
49626;SDS011;35527;54.616;39.786;2023-08-20T18:20:11;8.23;;;4.75;;
49626;SDS011;35527;54.616;39.786;2023-08-20T18:23:18;6.32;;;4.70;;
49626;SDS011;35527;54.616;39.786;2023-08-20T18:26:23;7.97;;;4.80;;
49626;SDS011;35527;54.616;39.786;2023-08-20T18:29:26;7.38;;;4.85;;
49626;SDS011;35527;54.616;39.786;2023-08-20T18:32:30;7.43;;;4.90;;
49626;SDS011;35527;54.616;39.786;2023-08-20T18:35:34;6.40;;;3.97;;
49626;SDS011;35527;54.616;39.786;2023-08-20T18:38:40;6.03;;;3.63;;
49626;SDS011;35527;54.616;39.786;2023-08-20T18:41:44;6.72;;;4.13;;
49626;SDS011;35527;54.616;39.786;2023-08-20T18:44:50;6.57;;;3.63;;
49626;SDS011;35527;54.616;39.786;2023-08-20T18:47:52;6.03;;;3.63;;
49626;SDS011;35527;54.616;39.786;2023-08-20T18:50:57;5.50;;;3.17;;
49626;SDS011;35527;54.616;39.786;2023-08-20T18:54:03;6.35;;;2.80;;
49626;SDS011;35527;54.616;39.786;2023-08-20T18:57:11;6.10;;;3.22;;
49626;SDS011;35527;54.616;39.786;2023-08-20T19:00:16;5.37;;;3.00;;
49626;SDS011;35527;54.616;39.786;2023-08-20T19:03:22;7.00;;;4.55;;
49626;SDS011;35527;54.616;39.786;2023-08-20T19:06:26;5.72;;;3.13;;
49626;SDS011;35527;54.616;39.786;2023-08-20T19:09:38;7.65;;;3.70;;
49626;SDS011;35527;54.616;39.786;2023-08-20T19:12:41;6.65;;;3.60;;